INFORMACIÓN METAR y TAF
METAR FOR LEVS
ADDS - METARS form results

(1545 UTC 28 November 2022)
Data provider http://aviationweather.gov/metar/data/
 
METAR text: LEVS 281530Z 30015KT 260V350 9999 FEW040 11/01 Q1023
Conditions at: LEVS (MADRID/CUATRO VI, ES) observed 1530 UTC 28 November 2022
Temperature: 11.0°C (52°F)
Dewpoint: 1.0°C (34°F) [RH = 50%]
Pressure (altimeter): 30.21 inches Hg (1023.0 mb)
Winds: from the WNW (300 degrees) at 17 MPH (15 knots; 7.7 m/s)
Visibility: 6 or more miles (10+ km)
Ceiling: at least 12,000 feet AGL
Clouds: few clouds at 4000 feet AGL
Weather: no significant weather observed at this time

METAR text: LEVS 281500Z 30016KT 270V340 9999 FEW040 11/01 Q1023
Conditions at: LEVS (MADRID/CUATRO VI, ES) observed 1500 UTC 28 November 2022
Temperature: 11.0°C (52°F)
Dewpoint: 1.0°C (34°F) [RH = 50%]
Pressure (altimeter): 30.21 inches Hg (1023.0 mb)
Winds: from the WNW (300 degrees) at 18 MPH (16 knots; 8.2 m/s)
Visibility: 6 or more miles (10+ km)
Ceiling: at least 12,000 feet AGL
Clouds: few clouds at 4000 feet AGL
Weather: no significant weather observed at this time

Forecast for: LEVS (MADRID/CUATRO VI, ES)
Text: TAF LEVS 281100Z 2812/2912 VRB05KT CAVOK TX11/2815Z TN04/2906Z
Forecast period: 1200 UTC 28 November 2022 to 1200 UTC 29 November 2022
Forecast type: FROM: standard forecast or significant change
Winds: variable direction winds at 6 MPH (5 knots; 2.6 m/s)
Visibility: 6 or more miles (10+ km)
Ceiling: unknown
Clouds: missing
Weather: no significant weather forecast for this period
Text: TEMPO 2812/2820 30010KT
Forecast period: 1200 to 2000 UTC 28 November 2022
Forecast type: TEMPORARY: The following changes expected for less than half the time period
Winds: from the WNW (300 degrees) at 12 MPH (10 knots; 5.1 m/s)
Visibility: missing
Ceiling: unknown
Clouds: missing
Weather: no significant weather forecast for this period
Text: PROB40
Forecast period: 1200 to 2000 UTC 28 November 2022
Forecast type: TEMPORARY: The following changes expected for less than half the time period
Winds: from the WNW (300 degrees) at 17 MPH (15 knots; 7.7 m/s)
gusting to 29 MPH (25 knots; 12.9 m/s)
Visibility: missing
Ceiling: unknown
Clouds: missing
Weather: no significant weather forecast for this period

 MAPA DE AEROPUERTO

 INFORMACIÓN DE PISTA

 FRECUANCIAS DEL AEROPUERTO

 RADIO AYUDAS DEL AEROPUERTO




Powered by Virtual Airlines Manager